Kezdőlap
METAR-TAF:

METAR-TAF

Repülőterek :

Hobbs, Új-Mexikó, Amerikai Egyesült Államok

földrajzi szélesség: 32-41N, földrajzi hosszúság: 103-13W, magasság: 1115 m

Jelenlegi meteorológiai megfigyelések

A jelentés 1 órával és 18 perccel ezelõtt készült, 14:50 UTC
Dél-délkeleti szél 21 kt széllökések: 27 kt
Hőmérséklet 26°C
Páratartalom 65%
Légköri nyomás 1010 hPa
Látótávolság: 16.1 km
Derült ég

METAR: KHOB 181450Z 16021G27KT 10SM CLR 26/19 A2982

Idő: 10:08 (16:08 UTC)

Előrejelzés

A jelentés 4 órával és 48 perccel ezelõtt készült, 11:20 UTC
Az előrejelzés 18-én 12 óra UTC és 19-én 12 óra UTC között érvényes
Dél-délkeleti szél 17 kt széllökések: 25 kt
Látótávolság: 10 km
Szórványos felhőzet 8000 lábon
Szórványos felhőzet 25000 lábon

TAF: KHOB 181120Z 1812/1912 15017G25KT P6SM SCT080 SCT250

Meteorológiai megfigyelések és előrejelzések több, mint 4000 repülőtéren (METAR és TAF jelentéseket).

A térképen piros és sárga pontok jelzik az elérhető meteorológiai állomásokat.

Mozgassa az egeret a pont fölött, hogy megjelenjen az állomás neve.

Azután kattintson az időjárási megfigyelések és előrejelzések megtekintéséhez.

A térkép megváltoztatása: kattintson a fekete keresztel jelölt zöld gombra ráközelítéshez, a vonallal jelölt zöld gombra távolításhoz, vagy a zöld nyilakra a szomszédos térképek eléréséhez.


METAR-TAF: